Aeroporto :
LOGIN :

Iscrizione | Disclaimer

   EN    FR    IT 

 










Sommario :    VFR   VFR Marginale   IFR   IFR Intensivo   IFR Molto Intensivo
Visibilità : 
Base nubi : 
>= 8 km
>= 3000ft
5 / 8 km
1000 / 3000 ft
1500m / 5 km
500 / 1000 ft
800 / 1500m
200 / 500 ft
< 800m
< 200 ft
Simboli :   Temporali  Nebbia  Neve Forte  Precipitazioni Forti  Vento > 20 kt
SIGMETs :   Varie  Temporali  Ghiacco  Turbolenza  Onda orograficha  Ceneri Vulcaniche






- Altitudine del aeroporto : 622 ft
- Codice IATA : BRS


EGGD - Bristol Int.

ULTIMO METAR :
  • 090220Z AUTO 04008KT 9999 NCD 16/14 Q1020

METARs OBSOLETI :
  • 090150Z AUTO 04009KT 9999 NCD 17/14 Q1020
  • 090120Z AUTO 05011KT 9999 NCD 17/15 Q1020
  • 090050Z AUTO 05010KT 9999 NCD 18/15 Q1020
  • 090020Z AUTO 05011KT 9999 NCD 18/15 Q1020
  • 082350Z AUTO 05010KT 9999 NCD 19/15 Q1020

TAF TAF EGGD
Valido dal 09 a 00 ore il 10 a 00 ore UTC


082254Z 0900/0924 06009KT CAVOK
BECMG 0901/0904 BKN008
PROB40 0903/0908 4000 BR BKN003
BECMG 0907/0910 FEW030
ATIS : +44 1275 473 666



MetMap, La meteo Aeronautica in un colpo d'occhio ! - Copyright ORBIFLY Dicembre 2007 - Disclaimer

ORBIFLY MET'MAP TEAM :

Programmazione e sviluppo : Alexandra Zaïnal
Concezione : Baudouin d'Aumeries
Aiuto per la programmazione : Marc-Olivier Méhu
Supporto tecnico e logistico : Manuel Goepfert
Aiuto per la traduzione : Arnaldo La Scala

Contatto : metmap@orbifly.com




FONTI E CREDITI :

   NOAA